sensor_id;sensor_type;location;lat;lon;timestamp;P1;durP1;ratioP1;P2;durP2;ratioP2
7813;SDS011;3952;48.364;16.022;2023-08-06T00:01:59;0.50;;;0.50;;
7813;SDS011;3952;48.364;16.022;2023-08-06T00:04:26;0.70;;;0.70;;
7813;SDS011;3952;48.364;16.022;2023-08-06T00:06:53;0.80;;;0.80;;
7813;SDS011;3952;48.364;16.022;2023-08-06T00:09:21;1.77;;;0.80;;
7813;SDS011;3952;48.364;16.022;2023-08-06T00:11:48;0.73;;;0.63;;
7813;SDS011;3952;48.364;16.022;2023-08-06T00:14:15;0.60;;;0.60;;
7813;SDS011;3952;48.364;16.022;2023-08-06T00:16:43;0.67;;;0.60;;
7813;SDS011;3952;48.364;16.022;2023-08-06T00:19:12;0.70;;;0.70;;
7813;SDS011;3952;48.364;16.022;2023-08-06T00:21:39;0.60;;;0.60;;
7813;SDS011;3952;48.364;16.022;2023-08-06T00:24:06;0.67;;;0.67;;
7813;SDS011;3952;48.364;16.022;2023-08-06T00:26:33;0.67;;;0.67;;
7813;SDS011;3952;48.364;16.022;2023-08-06T00:29:00;0.60;;;0.60;;
7813;SDS011;3952;48.364;16.022;2023-08-06T00:31:28;0.60;;;0.60;;
7813;SDS011;3952;48.364;16.022;2023-08-06T00:33:55;0.50;;;0.50;;
7813;SDS011;3952;48.364;16.022;2023-08-06T00:36:23;0.70;;;0.70;;
7813;SDS011;3952;48.364;16.022;2023-08-06T00:38:50;0.73;;;0.73;;
7813;SDS011;3952;48.364;16.022;2023-08-06T00:41:18;0.60;;;0.60;;
7813;SDS011;3952;48.364;16.022;2023-08-06T00:43:45;0.50;;;0.50;;
7813;SDS011;3952;48.364;16.022;2023-08-06T00:46:12;0.87;;;0.87;;
7813;SDS011;3952;48.364;16.022;2023-08-06T00:48:40;0.60;;;0.60;;
7813;SDS011;3952;48.364;16.022;2023-08-06T00:51:08;0.70;;;0.70;;
7813;SDS011;3952;48.364;16.022;2023-08-06T00:53:37;0.70;;;0.70;;
7813;SDS011;3952;48.364;16.022;2023-08-06T00:56:05;0.60;;;0.60;;
7813;SDS011;3952;48.364;16.022;2023-08-06T00:58:34;0.73;;;0.60;;
7813;SDS011;3952;48.364;16.022;2023-08-06T01:01:02;0.73;;;0.73;;
7813;SDS011;3952;48.364;16.022;2023-08-06T01:03:29;0.80;;;0.80;;
7813;SDS011;3952;48.364;16.022;2023-08-06T01:05:57;1.57;;;0.50;;
7813;SDS011;3952;48.364;16.022;2023-08-06T01:08:28;0.50;;;0.50;;
7813;SDS011;3952;48.364;16.022;2023-08-06T01:11:04;0.60;;;0.60;;
7813;SDS011;3952;48.364;16.022;2023-08-06T01:13:41;0.50;;;0.50;;
7813;SDS011;3952;48.364;16.022;2023-08-06T01:16:12;0.57;;;0.57;;
7813;SDS011;3952;48.364;16.022;2023-08-06T01:18:42;0.60;;;0.60;;
7813;SDS011;3952;48.364;16.022;2023-08-06T01:21:13;0.50;;;0.50;;
7813;SDS011;3952;48.364;16.022;2023-08-06T01:23:40;1.40;;;0.50;;
7813;SDS011;3952;48.364;16.022;2023-08-06T01:26:11;0.77;;;0.73;;
7813;SDS011;3952;48.364;16.022;2023-08-06T01:28:47;0.80;;;0.80;;
7813;SDS011;3952;48.364;16.022;2023-08-06T01:31:20;0.80;;;0.60;;
7813;SDS011;3952;48.364;16.022;2023-08-06T01:33:50;0.67;;;0.67;;
7813;SDS011;3952;48.364;16.022;2023-08-06T01:36:20;0.60;;;0.60;;
7813;SDS011;3952;48.364;16.022;2023-08-06T01:38:50;0.77;;;0.77;;
7813;SDS011;3952;48.364;16.022;2023-08-06T01:41:18;0.60;;;0.50;;
7813;SDS011;3952;48.364;16.022;2023-08-06T01:43:46;0.80;;;0.60;;
7813;SDS011;3952;48.364;16.022;2023-08-06T01:46:13;0.57;;;0.57;;
7813;SDS011;3952;48.364;16.022;2023-08-06T01:48:40;0.53;;;0.53;;
7813;SDS011;3952;48.364;16.022;2023-08-06T01:51:07;0.80;;;0.80;;
7813;SDS011;3952;48.364;16.022;2023-08-06T01:53:36;0.50;;;0.50;;
7813;SDS011;3952;48.364;16.022;2023-08-06T01:56:03;0.70;;;0.70;;
7813;SDS011;3952;48.364;16.022;2023-08-06T01:58:30;0.57;;;0.57;;
7813;SDS011;3952;48.364;16.022;2023-08-06T02:00:57;0.80;;;0.80;;
7813;SDS011;3952;48.364;16.022;2023-08-06T02:03:25;0.50;;;0.50;;
7813;SDS011;3952;48.364;16.022;2023-08-06T02:05:52;0.70;;;0.70;;
7813;SDS011;3952;48.364;16.022;2023-08-06T02:08:19;0.70;;;0.70;;
7813;SDS011;3952;48.364;16.022;2023-08-06T02:10:48;0.70;;;0.70;;
7813;SDS011;3952;48.364;16.022;2023-08-06T02:13:15;1.00;;;0.67;;
7813;SDS011;3952;48.364;16.022;2023-08-06T02:15:42;0.70;;;0.70;;
7813;SDS011;3952;48.364;16.022;2023-08-06T02:18:10;0.80;;;0.80;;
7813;SDS011;3952;48.364;16.022;2023-08-06T02:20:38;0.80;;;0.80;;
7813;SDS011;3952;48.364;16.022;2023-08-06T02:23:05;0.70;;;0.70;;
7813;SDS011;3952;48.364;16.022;2023-08-06T02:25:32;0.73;;;0.73;;
7813;SDS011;3952;48.364;16.022;2023-08-06T02:28:00;0.90;;;0.90;;
7813;SDS011;3952;48.364;16.022;2023-08-06T02:30:28;0.90;;;0.90;;
7813;SDS011;3952;48.364;16.022;2023-08-06T02:32:55;0.60;;;0.60;;
7813;SDS011;3952;48.364;16.022;2023-08-06T02:35:22;1.30;;;0.90;;
7813;SDS011;3952;48.364;16.022;2023-08-06T02:37:50;0.70;;;0.70;;
7813;SDS011;3952;48.364;16.022;2023-08-06T02:40:17;0.80;;;0.80;;
7813;SDS011;3952;48.364;16.022;2023-08-06T02:42:44;0.83;;;0.83;;
7813;SDS011;3952;48.364;16.022;2023-08-06T02:45:12;0.90;;;0.90;;
7813;SDS011;3952;48.364;16.022;2023-08-06T02:47:40;0.80;;;0.80;;
7813;SDS011;3952;48.364;16.022;2023-08-06T02:50:07;0.93;;;0.93;;
7813;SDS011;3952;48.364;16.022;2023-08-06T02:52:34;1.00;;;1.00;;
7813;SDS011;3952;48.364;16.022;2023-08-06T02:55:04;0.80;;;0.80;;
7813;SDS011;3952;48.364;16.022;2023-08-06T02:57:32;1.30;;;1.30;;
7813;SDS011;3952;48.364;16.022;2023-08-06T02:59:59;0.90;;;0.90;;
7813;SDS011;3952;48.364;16.022;2023-08-06T03:02:28;1.57;;;1.13;;
7813;SDS011;3952;48.364;16.022;2023-08-06T03:04:55;1.07;;;1.07;;
7813;SDS011;3952;48.364;16.022;2023-08-06T03:07:22;1.10;;;1.10;;
7813;SDS011;3952;48.364;16.022;2023-08-06T03:09:49;1.07;;;1.00;;
7813;SDS011;3952;48.364;16.022;2023-08-06T03:12:16;1.30;;;1.30;;
7813;SDS011;3952;48.364;16.022;2023-08-06T03:14:43;1.00;;;0.97;;
7813;SDS011;3952;48.364;16.022;2023-08-06T03:17:11;1.80;;;1.30;;
7813;SDS011;3952;48.364;16.022;2023-08-06T03:19:39;1.20;;;1.20;;
7813;SDS011;3952;48.364;16.022;2023-08-06T03:22:06;1.47;;;1.37;;
7813;SDS011;3952;48.364;16.022;2023-08-06T03:24:34;1.23;;;1.20;;
7813;SDS011;3952;48.364;16.022;2023-08-06T03:27:01;1.70;;;1.00;;
7813;SDS011;3952;48.364;16.022;2023-08-06T03:29:28;1.20;;;1.20;;
7813;SDS011;3952;48.364;16.022;2023-08-06T03:31:55;1.53;;;1.20;;
7813;SDS011;3952;48.364;16.022;2023-08-06T03:34:22;1.50;;;1.40;;
7813;SDS011;3952;48.364;16.022;2023-08-06T03:36:51;1.30;;;1.30;;
7813;SDS011;3952;48.364;16.022;2023-08-06T03:39:18;1.03;;;1.03;;
7813;SDS011;3952;48.364;16.022;2023-08-06T03:41:45;1.30;;;1.30;;
7813;SDS011;3952;48.364;16.022;2023-08-06T03:44:12;1.20;;;1.20;;
7813;SDS011;3952;48.364;16.022;2023-08-06T03:46:39;1.33;;;1.33;;
7813;SDS011;3952;48.364;16.022;2023-08-06T03:49:06;1.60;;;1.50;;
7813;SDS011;3952;48.364;16.022;2023-08-06T03:51:34;1.33;;;1.33;;
7813;SDS011;3952;48.364;16.022;2023-08-06T03:54:02;1.50;;;1.50;;
7813;SDS011;3952;48.364;16.022;2023-08-06T03:56:29;1.43;;;1.40;;
7813;SDS011;3952;48.364;16.022;2023-08-06T03:58:57;1.73;;;1.70;;
7813;SDS011;3952;48.364;16.022;2023-08-06T04:01:24;1.67;;;1.57;;
7813;SDS011;3952;48.364;16.022;2023-08-06T04:03:51;1.60;;;1.60;;
7813;SDS011;3952;48.364;16.022;2023-08-06T04:06:18;1.30;;;1.30;;
7813;SDS011;3952;48.364;16.022;2023-08-06T04:08:45;3.73;;;1.70;;
7813;SDS011;3952;48.364;16.022;2023-08-06T04:11:14;1.87;;;1.77;;
7813;SDS011;3952;48.364;16.022;2023-08-06T04:13:42;2.03;;;1.47;;
7813;SDS011;3952;48.364;16.022;2023-08-06T04:16:10;1.40;;;1.40;;
7813;SDS011;3952;48.364;16.022;2023-08-06T04:18:38;1.10;;;1.10;;
7813;SDS011;3952;48.364;16.022;2023-08-06T04:21:05;1.40;;;1.40;;
7813;SDS011;3952;48.364;16.022;2023-08-06T04:23:32;2.70;;;1.40;;
7813;SDS011;3952;48.364;16.022;2023-08-06T04:25:59;1.50;;;1.40;;
7813;SDS011;3952;48.364;16.022;2023-08-06T04:28:28;1.60;;;1.60;;
7813;SDS011;3952;48.364;16.022;2023-08-06T04:30:56;1.50;;;1.50;;
7813;SDS011;3952;48.364;16.022;2023-08-06T04:33:25;1.60;;;1.50;;
7813;SDS011;3952;48.364;16.022;2023-08-06T04:35:55;1.30;;;1.30;;
7813;SDS011;3952;48.364;16.022;2023-08-06T04:38:23;1.70;;;1.60;;
7813;SDS011;3952;48.364;16.022;2023-08-06T04:40:51;1.70;;;1.60;;
7813;SDS011;3952;48.364;16.022;2023-08-06T04:43:18;1.33;;;1.33;;
7813;SDS011;3952;48.364;16.022;2023-08-06T04:45:47;1.33;;;1.33;;
7813;SDS011;3952;48.364;16.022;2023-08-06T04:48:15;2.13;;;1.90;;
7813;SDS011;3952;48.364;16.022;2023-08-06T04:50:45;1.60;;;1.60;;
7813;SDS011;3952;48.364;16.022;2023-08-06T04:53:13;2.80;;;1.40;;
7813;SDS011;3952;48.364;16.022;2023-08-06T04:55:40;1.40;;;1.40;;
7813;SDS011;3952;48.364;16.022;2023-08-06T04:58:08;1.53;;;1.53;;
7813;SDS011;3952;48.364;16.022;2023-08-06T05:00:37;1.50;;;1.50;;
7813;SDS011;3952;48.364;16.022;2023-08-06T05:03:05;1.83;;;1.70;;
7813;SDS011;3952;48.364;16.022;2023-08-06T05:05:33;1.73;;;1.70;;
7813;SDS011;3952;48.364;16.022;2023-08-06T05:08:00;1.70;;;1.60;;
7813;SDS011;3952;48.364;16.022;2023-08-06T05:10:27;1.50;;;1.40;;
7813;SDS011;3952;48.364;16.022;2023-08-06T05:12:54;1.50;;;1.50;;
7813;SDS011;3952;48.364;16.022;2023-08-06T05:15:22;1.80;;;1.70;;
7813;SDS011;3952;48.364;16.022;2023-08-06T05:17:50;1.27;;;1.27;;
7813;SDS011;3952;48.364;16.022;2023-08-06T05:20:19;1.40;;;1.40;;
7813;SDS011;3952;48.364;16.022;2023-08-06T05:22:47;1.30;;;1.30;;
7813;SDS011;3952;48.364;16.022;2023-08-06T05:25:14;1.70;;;1.70;;
7813;SDS011;3952;48.364;16.022;2023-08-06T05:27:41;1.50;;;1.40;;
7813;SDS011;3952;48.364;16.022;2023-08-06T05:30:09;1.40;;;1.30;;
7813;SDS011;3952;48.364;16.022;2023-08-06T05:32:37;1.50;;;1.40;;
7813;SDS011;3952;48.364;16.022;2023-08-06T05:35:04;1.60;;;1.60;;
7813;SDS011;3952;48.364;16.022;2023-08-06T05:37:34;2.30;;;1.33;;
7813;SDS011;3952;48.364;16.022;2023-08-06T05:40:01;1.60;;;1.50;;
7813;SDS011;3952;48.364;16.022;2023-08-06T05:42:29;1.40;;;1.40;;
7813;SDS011;3952;48.364;16.022;2023-08-06T05:44:56;1.30;;;1.30;;
7813;SDS011;3952;48.364;16.022;2023-08-06T05:47:23;1.20;;;1.20;;
7813;SDS011;3952;48.364;16.022;2023-08-06T05:49:51;1.70;;;1.30;;
7813;SDS011;3952;48.364;16.022;2023-08-06T05:52:18;1.33;;;1.23;;
7813;SDS011;3952;48.364;16.022;2023-08-06T05:54:47;1.50;;;1.50;;
7813;SDS011;3952;48.364;16.022;2023-08-06T05:57:14;1.27;;;1.27;;
7813;SDS011;3952;48.364;16.022;2023-08-06T05:59:41;1.80;;;1.70;;
7813;SDS011;3952;48.364;16.022;2023-08-06T06:02:09;1.47;;;1.37;;
7813;SDS011;3952;48.364;16.022;2023-08-06T06:04:36;1.40;;;1.40;;
7813;SDS011;3952;48.364;16.022;2023-08-06T06:07:04;1.30;;;1.30;;
7813;SDS011;3952;48.364;16.022;2023-08-06T06:09:31;1.27;;;1.17;;
7813;SDS011;3952;48.364;16.022;2023-08-06T06:12:00;3.20;;;1.37;;
7813;SDS011;3952;48.364;16.022;2023-08-06T06:14:27;2.33;;;1.70;;
7813;SDS011;3952;48.364;16.022;2023-08-06T06:16:54;1.40;;;1.30;;
7813;SDS011;3952;48.364;16.022;2023-08-06T06:19:21;1.27;;;1.27;;
7813;SDS011;3952;48.364;16.022;2023-08-06T06:21:49;1.40;;;1.30;;
7813;SDS011;3952;48.364;16.022;2023-08-06T06:24:16;1.20;;;1.20;;
7813;SDS011;3952;48.364;16.022;2023-08-06T06:26:43;1.33;;;1.27;;
7813;SDS011;3952;48.364;16.022;2023-08-06T06:29:11;1.43;;;1.43;;
7813;SDS011;3952;48.364;16.022;2023-08-06T06:31:39;1.97;;;1.80;;
7813;SDS011;3952;48.364;16.022;2023-08-06T06:34:06;1.37;;;1.37;;
7813;SDS011;3952;48.364;16.022;2023-08-06T06:36:33;1.30;;;1.27;;
7813;SDS011;3952;48.364;16.022;2023-08-06T06:39:00;1.27;;;1.27;;
7813;SDS011;3952;48.364;16.022;2023-08-06T06:41:27;1.20;;;1.20;;
7813;SDS011;3952;48.364;16.022;2023-08-06T06:43:57;1.73;;;1.43;;
7813;SDS011;3952;48.364;16.022;2023-08-06T06:46:25;1.43;;;1.33;;
7813;SDS011;3952;48.364;16.022;2023-08-06T06:48:52;1.17;;;1.17;;
7813;SDS011;3952;48.364;16.022;2023-08-06T06:51:19;1.10;;;1.10;;
7813;SDS011;3952;48.364;16.022;2023-08-06T06:53:47;1.67;;;1.17;;
7813;SDS011;3952;48.364;16.022;2023-08-06T06:56:14;1.33;;;1.20;;
7813;SDS011;3952;48.364;16.022;2023-08-06T06:58:41;1.13;;;1.13;;
7813;SDS011;3952;48.364;16.022;2023-08-06T07:01:09;0.77;;;0.77;;
7813;SDS011;3952;48.364;16.022;2023-08-06T07:03:38;1.10;;;1.10;;
7813;SDS011;3952;48.364;16.022;2023-08-06T07:06:06;1.37;;;1.30;;
7813;SDS011;3952;48.364;16.022;2023-08-06T07:08:33;1.13;;;1.03;;
7813;SDS011;3952;48.364;16.022;2023-08-06T07:11:01;1.03;;;1.03;;
7813;SDS011;3952;48.364;16.022;2023-08-06T07:13:28;1.20;;;1.10;;
7813;SDS011;3952;48.364;16.022;2023-08-06T07:15:56;0.90;;;0.90;;
7813;SDS011;3952;48.364;16.022;2023-08-06T07:18:23;1.00;;;1.00;;
7813;SDS011;3952;48.364;16.022;2023-08-06T07:20:53;0.97;;;0.97;;
7813;SDS011;3952;48.364;16.022;2023-08-06T07:23:22;0.80;;;0.80;;
7813;SDS011;3952;48.364;16.022;2023-08-06T07:25:50;0.90;;;0.90;;
7813;SDS011;3952;48.364;16.022;2023-08-06T07:28:17;0.70;;;0.70;;
7813;SDS011;3952;48.364;16.022;2023-08-06T07:30:44;0.93;;;0.93;;
7813;SDS011;3952;48.364;16.022;2023-08-06T07:33:11;0.80;;;0.80;;
7813;SDS011;3952;48.364;16.022;2023-08-06T07:35:39;0.77;;;0.77;;
7813;SDS011;3952;48.364;16.022;2023-08-06T07:38:07;0.77;;;0.77;;
7813;SDS011;3952;48.364;16.022;2023-08-06T07:40:35;0.80;;;0.80;;
7813;SDS011;3952;48.364;16.022;2023-08-06T07:43:03;0.97;;;0.97;;
7813;SDS011;3952;48.364;16.022;2023-08-06T07:45:32;0.90;;;0.90;;
7813;SDS011;3952;48.364;16.022;2023-08-06T07:48:00;1.00;;;1.00;;
7813;SDS011;3952;48.364;16.022;2023-08-06T07:50:28;1.13;;;1.13;;
7813;SDS011;3952;48.364;16.022;2023-08-06T07:52:55;1.50;;;1.40;;
7813;SDS011;3952;48.364;16.022;2023-08-06T07:55:24;1.50;;;1.50;;
7813;SDS011;3952;48.364;16.022;2023-08-06T07:57:52;2.10;;;1.63;;
7813;SDS011;3952;48.364;16.022;2023-08-06T08:00:20;1.00;;;1.00;;
7813;SDS011;3952;48.364;16.022;2023-08-06T08:02:47;1.30;;;1.30;;
7813;SDS011;3952;48.364;16.022;2023-08-06T08:05:14;1.20;;;1.20;;
7813;SDS011;3952;48.364;16.022;2023-08-06T08:07:41;1.17;;;1.17;;
7813;SDS011;3952;48.364;16.022;2023-08-06T08:10:09;1.20;;;1.20;;
7813;SDS011;3952;48.364;16.022;2023-08-06T08:12:38;1.40;;;1.40;;
7813;SDS011;3952;48.364;16.022;2023-08-06T08:15:05;1.20;;;1.20;;
7813;SDS011;3952;48.364;16.022;2023-08-06T08:17:33;1.33;;;1.33;;
7813;SDS011;3952;48.364;16.022;2023-08-06T08:20:00;1.50;;;1.50;;
7813;SDS011;3952;48.364;16.022;2023-08-06T08:22:28;1.73;;;1.63;;
7813;SDS011;3952;48.364;16.022;2023-08-06T08:24:55;1.53;;;1.53;;
7813;SDS011;3952;48.364;16.022;2023-08-06T08:27:22;1.37;;;1.37;;
7813;SDS011;3952;48.364;16.022;2023-08-06T08:29:51;1.43;;;1.43;;
7813;SDS011;3952;48.364;16.022;2023-08-06T08:32:18;1.83;;;1.73;;
7813;SDS011;3952;48.364;16.022;2023-08-06T08:34:45;1.30;;;1.30;;
7813;SDS011;3952;48.364;16.022;2023-08-06T08:37:12;1.00;;;1.00;;
7813;SDS011;3952;48.364;16.022;2023-08-06T08:39:40;1.10;;;1.10;;
7813;SDS011;3952;48.364;16.022;2023-08-06T08:42:07;1.33;;;1.27;;
7813;SDS011;3952;48.364;16.022;2023-08-06T08:44:36;1.40;;;1.23;;
7813;SDS011;3952;48.364;16.022;2023-08-06T08:47:06;1.30;;;1.30;;
7813;SDS011;3952;48.364;16.022;2023-08-06T08:49:35;1.00;;;1.00;;
7813;SDS011;3952;48.364;16.022;2023-08-06T08:52:03;1.10;;;1.10;;
7813;SDS011;3952;48.364;16.022;2023-08-06T08:54:33;1.20;;;1.20;;
7813;SDS011;3952;48.364;16.022;2023-08-06T08:57:01;1.20;;;1.20;;
7813;SDS011;3952;48.364;16.022;2023-08-06T08:59:29;1.40;;;1.40;;
7813;SDS011;3952;48.364;16.022;2023-08-06T09:01:56;1.40;;;1.40;;
7813;SDS011;3952;48.364;16.022;2023-08-06T09:04:26;1.37;;;1.37;;
7813;SDS011;3952;48.364;16.022;2023-08-06T09:06:57;1.20;;;1.20;;
7813;SDS011;3952;48.364;16.022;2023-08-06T09:09:26;1.30;;;1.30;;
7813;SDS011;3952;48.364;16.022;2023-08-06T09:11:59;1.30;;;1.30;;
7813;SDS011;3952;48.364;16.022;2023-08-06T09:14:27;1.80;;;1.60;;
7813;SDS011;3952;48.364;16.022;2023-08-06T09:16:55;1.30;;;1.30;;
7813;SDS011;3952;48.364;16.022;2023-08-06T09:19:22;1.50;;;1.50;;
7813;SDS011;3952;48.364;16.022;2023-08-06T09:21:52;1.40;;;1.40;;
7813;SDS011;3952;48.364;16.022;2023-08-06T09:24:21;2.10;;;1.40;;
7813;SDS011;3952;48.364;16.022;2023-08-06T09:26:48;1.47;;;1.47;;
7813;SDS011;3952;48.364;16.022;2023-08-06T09:29:16;1.60;;;1.50;;
7813;SDS011;3952;48.364;16.022;2023-08-06T09:31:43;1.50;;;1.50;;
7813;SDS011;3952;48.364;16.022;2023-08-06T09:34:11;1.40;;;1.40;;
7813;SDS011;3952;48.364;16.022;2023-08-06T09:36:41;1.60;;;1.50;;
7813;SDS011;3952;48.364;16.022;2023-08-06T09:39:17;1.50;;;1.40;;
7813;SDS011;3952;48.364;16.022;2023-08-06T09:41:45;1.20;;;1.20;;
7813;SDS011;3952;48.364;16.022;2023-08-06T09:44:16;1.40;;;1.30;;
7813;SDS011;3952;48.364;16.022;2023-08-06T09:46:48;1.47;;;1.47;;
7813;SDS011;3952;48.364;16.022;2023-08-06T09:49:15;1.40;;;1.40;;
7813;SDS011;3952;48.364;16.022;2023-08-06T09:51:44;1.50;;;1.50;;
7813;SDS011;3952;48.364;16.022;2023-08-06T09:54:12;1.30;;;1.30;;
7813;SDS011;3952;48.364;16.022;2023-08-06T09:56:41;1.30;;;1.30;;
7813;SDS011;3952;48.364;16.022;2023-08-06T09:59:09;1.23;;;1.20;;
7813;SDS011;3952;48.364;16.022;2023-08-06T10:01:37;1.40;;;1.40;;
7813;SDS011;3952;48.364;16.022;2023-08-06T10:04:05;1.40;;;1.30;;
7813;SDS011;3952;48.364;16.022;2023-08-06T10:06:34;1.20;;;1.20;;
7813;SDS011;3952;48.364;16.022;2023-08-06T10:09:02;2.17;;;1.07;;
7813;SDS011;3952;48.364;16.022;2023-08-06T10:11:30;1.40;;;1.40;;
7813;SDS011;3952;48.364;16.022;2023-08-06T10:14:00;1.10;;;1.10;;
7813;SDS011;3952;48.364;16.022;2023-08-06T10:16:32;1.30;;;1.30;;
7813;SDS011;3952;48.364;16.022;2023-08-06T10:19:01;1.30;;;1.20;;
7813;SDS011;3952;48.364;16.022;2023-08-06T10:21:30;1.20;;;1.20;;
7813;SDS011;3952;48.364;16.022;2023-08-06T10:23:58;1.67;;;1.23;;
7813;SDS011;3952;48.364;16.022;2023-08-06T10:26:26;1.40;;;1.40;;
7813;SDS011;3952;48.364;16.022;2023-08-06T10:28:55;1.20;;;1.20;;
7813;SDS011;3952;48.364;16.022;2023-08-06T10:34:21;1.20;;;1.20;;
7813;SDS011;3952;48.364;16.022;2023-08-06T10:36:49;1.30;;;1.30;;
7813;SDS011;3952;48.364;16.022;2023-08-06T10:39:16;1.33;;;1.33;;
7813;SDS011;3952;48.364;16.022;2023-08-06T10:41:43;1.33;;;1.33;;
7813;SDS011;3952;48.364;16.022;2023-08-06T10:44:10;1.33;;;1.30;;
7813;SDS011;3952;48.364;16.022;2023-08-06T10:46:38;1.33;;;1.33;;
7813;SDS011;3952;48.364;16.022;2023-08-06T10:49:06;1.40;;;1.40;;
7813;SDS011;3952;48.364;16.022;2023-08-06T10:51:34;0.93;;;0.93;;
7813;SDS011;3952;48.364;16.022;2023-08-06T10:54:01;1.33;;;1.30;;
7813;SDS011;3952;48.364;16.022;2023-08-06T10:56:29;2.13;;;1.27;;
7813;SDS011;3952;48.364;16.022;2023-08-06T10:58:56;1.47;;;1.47;;
7813;SDS011;3952;48.364;16.022;2023-08-06T11:01:24;1.20;;;1.20;;
7813;SDS011;3952;48.364;16.022;2023-08-06T11:03:55;1.33;;;1.33;;
7813;SDS011;3952;48.364;16.022;2023-08-06T11:06:23;1.47;;;1.43;;
7813;SDS011;3952;48.364;16.022;2023-08-06T11:08:52;1.23;;;1.23;;
7813;SDS011;3952;48.364;16.022;2023-08-06T11:11:22;1.17;;;1.17;;
7813;SDS011;3952;48.364;16.022;2023-08-06T11:13:50;1.30;;;1.30;;
7813;SDS011;3952;48.364;16.022;2023-08-06T11:16:18;1.23;;;1.23;;
7813;SDS011;3952;48.364;16.022;2023-08-06T11:18:46;1.47;;;1.47;;
7813;SDS011;3952;48.364;16.022;2023-08-06T11:21:13;1.77;;;1.67;;
7813;SDS011;3952;48.364;16.022;2023-08-06T11:23:41;2.57;;;2.37;;
7813;SDS011;3952;48.364;16.022;2023-08-06T11:26:09;2.27;;;2.17;;
7813;SDS011;3952;48.364;16.022;2023-08-06T11:28:36;2.70;;;2.60;;
7813;SDS011;3952;48.364;16.022;2023-08-06T11:31:03;2.63;;;2.53;;
7813;SDS011;3952;48.364;16.022;2023-08-06T11:33:30;2.67;;;2.50;;
7813;SDS011;3952;48.364;16.022;2023-08-06T11:35:58;2.20;;;2.10;;
7813;SDS011;3952;48.364;16.022;2023-08-06T11:38:26;2.03;;;2.00;;
7813;SDS011;3952;48.364;16.022;2023-08-06T11:40:56;2.03;;;1.93;;
7813;SDS011;3952;48.364;16.022;2023-08-06T11:43:23;1.70;;;1.70;;
7813;SDS011;3952;48.364;16.022;2023-08-06T11:45:50;1.63;;;1.60;;
7813;SDS011;3952;48.364;16.022;2023-08-06T11:48:19;1.57;;;1.57;;
7813;SDS011;3952;48.364;16.022;2023-08-06T11:50:47;1.90;;;1.90;;
7813;SDS011;3952;48.364;16.022;2023-08-06T11:53:14;1.60;;;1.60;;
7813;SDS011;3952;48.364;16.022;2023-08-06T11:55:41;1.87;;;1.77;;
7813;SDS011;3952;48.364;16.022;2023-08-06T11:58:10;2.10;;;1.67;;
7813;SDS011;3952;48.364;16.022;2023-08-06T12:00:38;1.37;;;1.33;;
7813;SDS011;3952;48.364;16.022;2023-08-06T12:03:05;1.77;;;1.67;;
7813;SDS011;3952;48.364;16.022;2023-08-06T12:05:33;2.07;;;1.50;;
7813;SDS011;3952;48.364;16.022;2023-08-06T12:08:00;1.70;;;1.60;;
7813;SDS011;3952;48.364;16.022;2023-08-06T12:10:29;1.70;;;1.70;;
7813;SDS011;3952;48.364;16.022;2023-08-06T12:12:57;1.60;;;1.60;;
7813;SDS011;3952;48.364;16.022;2023-08-06T12:15:26;2.10;;;1.90;;
7813;SDS011;3952;48.364;16.022;2023-08-06T12:17:53;1.73;;;1.63;;
7813;SDS011;3952;48.364;16.022;2023-08-06T12:20:20;1.90;;;1.90;;
7813;SDS011;3952;48.364;16.022;2023-08-06T12:22:47;2.50;;;2.40;;
7813;SDS011;3952;48.364;16.022;2023-08-06T12:25:14;2.60;;;2.50;;
7813;SDS011;3952;48.364;16.022;2023-08-06T12:27:42;2.40;;;2.20;;
7813;SDS011;3952;48.364;16.022;2023-08-06T12:30:11;2.30;;;2.20;;
7813;SDS011;3952;48.364;16.022;2023-08-06T12:32:40;2.00;;;2.00;;
7813;SDS011;3952;48.364;16.022;2023-08-06T12:35:08;2.27;;;2.17;;
7813;SDS011;3952;48.364;16.022;2023-08-06T12:37:35;2.60;;;2.50;;
7813;SDS011;3952;48.364;16.022;2023-08-06T12:40:04;2.40;;;2.30;;
7813;SDS011;3952;48.364;16.022;2023-08-06T12:42:31;2.30;;;2.20;;
7813;SDS011;3952;48.364;16.022;2023-08-06T12:44:59;2.40;;;2.30;;
7813;SDS011;3952;48.364;16.022;2023-08-06T12:47:26;2.40;;;2.30;;
7813;SDS011;3952;48.364;16.022;2023-08-06T12:49:54;2.40;;;2.30;;
7813;SDS011;3952;48.364;16.022;2023-08-06T12:52:21;2.40;;;2.30;;
7813;SDS011;3952;48.364;16.022;2023-08-06T12:54:49;2.70;;;2.60;;
7813;SDS011;3952;48.364;16.022;2023-08-06T12:57:16;2.53;;;2.43;;
7813;SDS011;3952;48.364;16.022;2023-08-06T12:59:43;2.53;;;2.40;;
7813;SDS011;3952;48.364;16.022;2023-08-06T13:02:10;2.50;;;2.40;;
7813;SDS011;3952;48.364;16.022;2023-08-06T13:04:37;2.17;;;2.17;;
7813;SDS011;3952;48.364;16.022;2023-08-06T13:07:06;2.50;;;2.40;;
7813;SDS011;3952;48.364;16.022;2023-08-06T13:09:33;2.70;;;2.60;;
7813;SDS011;3952;48.364;16.022;2023-08-06T13:12:00;2.60;;;2.50;;
7813;SDS011;3952;48.364;16.022;2023-08-06T13:14:31;2.30;;;2.20;;
7813;SDS011;3952;48.364;16.022;2023-08-06T13:16:58;2.60;;;2.50;;
7813;SDS011;3952;48.364;16.022;2023-08-06T13:19:27;2.53;;;2.43;;
7813;SDS011;3952;48.364;16.022;2023-08-06T13:21:58;2.77;;;2.67;;
7813;SDS011;3952;48.364;16.022;2023-08-06T13:24:29;2.60;;;2.40;;
7813;SDS011;3952;48.364;16.022;2023-08-06T13:26:57;2.53;;;2.43;;
7813;SDS011;3952;48.364;16.022;2023-08-06T13:29:25;2.63;;;2.53;;
7813;SDS011;3952;48.364;16.022;2023-08-06T13:31:53;2.50;;;2.30;;
7813;SDS011;3952;48.364;16.022;2023-08-06T13:34:20;2.10;;;2.00;;
7813;SDS011;3952;48.364;16.022;2023-08-06T13:36:47;2.30;;;2.20;;
7813;SDS011;3952;48.364;16.022;2023-08-06T13:39:15;2.60;;;2.50;;
7813;SDS011;3952;48.364;16.022;2023-08-06T13:41:44;2.40;;;2.20;;
7813;SDS011;3952;48.364;16.022;2023-08-06T13:44:11;2.40;;;2.30;;
7813;SDS011;3952;48.364;16.022;2023-08-06T13:46:40;3.13;;;2.73;;
7813;SDS011;3952;48.364;16.022;2023-08-06T13:49:08;2.63;;;2.53;;
7813;SDS011;3952;48.364;16.022;2023-08-06T13:51:35;2.40;;;2.30;;
7813;SDS011;3952;48.364;16.022;2023-08-06T13:54:03;2.50;;;2.30;;
7813;SDS011;3952;48.364;16.022;2023-08-06T13:56:31;2.20;;;2.10;;
7813;SDS011;3952;48.364;16.022;2023-08-06T13:59:00;2.20;;;2.00;;
7813;SDS011;3952;48.364;16.022;2023-08-06T14:01:28;2.37;;;2.27;;
7813;SDS011;3952;48.364;16.022;2023-08-06T14:03:55;2.10;;;1.97;;
7813;SDS011;3952;48.364;16.022;2023-08-06T14:06:22;2.10;;;2.00;;
7813;SDS011;3952;48.364;16.022;2023-08-06T14:08:49;1.93;;;1.83;;
7813;SDS011;3952;48.364;16.022;2023-08-06T14:11:16;1.73;;;1.63;;
7813;SDS011;3952;48.364;16.022;2023-08-06T14:13:44;1.40;;;1.40;;
7813;SDS011;3952;48.364;16.022;2023-08-06T14:16:12;1.63;;;1.53;;
7813;SDS011;3952;48.364;16.022;2023-08-06T14:21:38;7.13;;;2.90;;
7813;SDS011;3952;48.364;16.022;2023-08-06T14:24:05;3.77;;;2.00;;
7813;SDS011;3952;48.364;16.022;2023-08-06T14:26:33;2.40;;;2.20;;
7813;SDS011;3952;48.364;16.022;2023-08-06T14:29:00;1.83;;;1.70;;
7813;SDS011;3952;48.364;16.022;2023-08-06T14:31:29;5.83;;;1.87;;
7813;SDS011;3952;48.364;16.022;2023-08-06T14:33:56;2.33;;;1.97;;
7813;SDS011;3952;48.364;16.022;2023-08-06T14:36:23;2.00;;;1.90;;
7813;SDS011;3952;48.364;16.022;2023-08-06T14:38:51;1.90;;;1.80;;
7813;SDS011;3952;48.364;16.022;2023-08-06T14:41:18;1.50;;;1.40;;
7813;SDS011;3952;48.364;16.022;2023-08-06T14:43:45;1.60;;;1.50;;
7813;SDS011;3952;48.364;16.022;2023-08-06T14:46:12;1.70;;;1.60;;
7813;SDS011;3952;48.364;16.022;2023-08-06T14:48:41;1.40;;;1.30;;
7813;SDS011;3952;48.364;16.022;2023-08-06T14:51:08;1.47;;;1.37;;
7813;SDS011;3952;48.364;16.022;2023-08-06T14:53:35;2.63;;;1.50;;
7813;SDS011;3952;48.364;16.022;2023-08-06T14:56:03;1.27;;;1.23;;
7813;SDS011;3952;48.364;16.022;2023-08-06T14:58:30;1.50;;;1.40;;
7813;SDS011;3952;48.364;16.022;2023-08-06T15:00:57;2.33;;;1.40;;
7813;SDS011;3952;48.364;16.022;2023-08-06T15:03:24;1.00;;;1.00;;
7813;SDS011;3952;48.364;16.022;2023-08-06T15:05:54;1.13;;;1.13;;
7813;SDS011;3952;48.364;16.022;2023-08-06T15:08:21;1.00;;;1.00;;
7813;SDS011;3952;48.364;16.022;2023-08-06T15:10:52;0.80;;;0.80;;